Time;durP1;ratioP1;P1;durP2;ratioP2;P2;SDS_P1;SDS_P2;PMS_P1;PMS_P2;Temp;Humidity;BMP_temperature;BMP_pressure;BME280_temperature;BME280_humidity;BME280_pressure;Samples;Min_cycle;Max_cycle;Signal;HPM_P1;HPM_P2
2022/10/01 00:00:23;;;;;;;19.30;8.73;;;;;;;14.76;92.65;95245.28;5110759;28;20169;-75
2022/10/01 00:02:49;;;;;;;11.53;7.20;;;;;;;14.70;92.48;95251.50;5110705;28;20169;-74
2022/10/01 00:05:15;;;;;;;16.00;8.87;;;;;;;14.72;92.54;95247.56;5110700;28;20173;-75
2022/10/01 00:07:43;;;;;;;20.70;9.93;;;;;;;14.69;92.40;95263.13;5110633;28;20204;-74
2022/10/01 00:10:09;;;;;;;21.57;10.83;;;;;;;14.61;92.81;95256.28;5110708;28;20208;-75
2022/10/01 00:12:35;;;;;;;20.20;10.27;;;;;;;14.61;92.86;95253.66;5110888;28;20181;-74
2022/10/01 00:15:02;;;;;;;16.77;10.37;;;;;;;14.51;93.16;95226.88;5111078;28;20218;-75
2022/10/01 00:17:27;;;;;;;25.93;12.43;;;;;;;14.52;93.10;95246.25;5110626;28;20234;-74
2022/10/01 00:19:53;;;;;;;25.60;11.70;;;;;;;14.54;93.16;95233.56;5110403;28;20649;-75
2022/10/01 00:22:18;;;;;;;19.07;11.47;;;;;;;14.56;93.03;95245.56;5110378;28;20181;-75
2022/10/01 00:24:46;;;;;;;29.00;14.80;;;;;;;14.51;92.86;95247.28;5110378;28;20234;-74
2022/10/01 00:27:12;;;;;;;25.23;14.13;;;;;;;14.39;93.15;95244.56;5110474;28;20276;-75
2022/10/01 00:29:38;;;;;;;26.37;13.13;;;;;;;14.43;92.99;95251.03;5110351;28;20177;-75
2022/10/01 00:32:04;;;;;;;30.50;14.93;;;;;;;14.33;93.39;95240.16;5112081;28;20169;-74
2022/10/01 00:34:29;;;;;;;24.03;12.80;;;;;;;14.33;93.20;95230.38;5114543;28;20216;-75
2022/10/01 00:36:54;;;;;;;20.93;12.57;;;;;;;14.19;93.07;95246.63;5114318;28;20299;-75
2022/10/01 00:39:20;;;;;;;26.83;16.47;;;;;;;13.78;95.23;95226.97;5114192;28;20216;-75
2022/10/01 00:41:45;;;;;;;48.27;27.43;;;;;;;13.92;95.47;95228.41;5114398;28;20179;-74
2022/10/01 00:44:31;;;;;;;26.27;14.53;;;;;;;13.85;96.11;95242.75;5114352;28;20244;-75
2022/10/01 00:47:03;;;;;;;61.33;32.60;;;;;;;13.93;96.37;95231.88;5113874;28;20321;-74
2022/10/01 00:49:32;;;;;;;19.63;11.40;;;;;;;13.91;96.39;95237.41;5114157;28;20204;-74
2022/10/01 00:52:04;;;;;;;46.00;27.73;;;;;;;14.01;96.27;95230.78;5113806;28;20177;-74
2022/10/01 00:54:52;;;;;;;20.63;12.77;;;;;;;13.93;95.81;95237.16;5114200;28;20207;-74
2022/10/01 00:57:21;;;;;;;24.07;13.90;;;;;;;13.95;96.03;95228.00;5113980;28;20175;-74
2022/10/01 00:59:48;;;;;;;22.30;11.73;;;;;;;14.02;95.87;95232.38;5113719;28;20269;-74
2022/10/01 01:02:14;;;;;;;15.20;8.20;;;;;;;13.90;95.34;95222.56;5113857;28;20173;-74
2022/10/01 01:04:40;;;;;;;20.37;10.73;;;;;;;14.03;95.36;95234.00;5113707;28;20191;-75
2022/10/01 01:07:08;;;;;;;15.10;8.47;;;;;;;14.11;94.71;95237.16;5113735;27;20229;-74
2022/10/01 01:09:36;;;;;;;13.93;8.40;;;;;;;14.16;94.37;95226.72;5113743;28;20187;-74
2022/10/01 01:12:35;;;;;;;12.00;8.20;;;;;;;14.13;94.42;95223.69;5113902;28;20180;-74
2022/10/01 01:15:16;;;;;;;13.40;8.33;;;;;;;14.19;93.80;95222.78;5113693;28;20177;-75
2022/10/01 01:17:44;;;;;;;17.00;8.90;;;;;;;14.13;94.11;95215.75;5113488;28;20165;-75
2022/10/01 01:20:23;;;;;;;20.37;9.90;;;;;;;14.12;94.06;95214.13;5113505;28;20199;-74
2022/10/01 01:23:02;;;;;;;14.17;8.67;;;;;;;13.93;95.17;95231.88;5113569;28;20168;-74
2022/10/01 01:25:53;;;;;;;15.07;9.67;;;;;;;13.92;95.80;95220.47;5113367;28;20184;-74
2022/10/01 01:28:30;;;;;;;16.93;8.93;;;;;;;13.89;95.52;95204.25;5112766;28;20287;-74
2022/10/01 01:31:00;;;;;;;14.70;8.50;;;;;;;13.80;95.68;95232.03;5113145;28;20608;-74
2022/10/01 01:33:29;;;;;;;16.03;9.37;;;;;;;13.88;95.37;95229.09;5113221;27;20862;-74
2022/10/01 01:36:03;;;;;;;24.37;8.87;;;;;;;13.93;95.15;95213.34;5113184;28;20176;-74
2022/10/01 01:38:36;;;;;;;16.43;9.10;;;;;;;13.91;95.07;95232.13;5113196;28;20176;-74
2022/10/01 01:41:04;;;;;;;20.00;11.37;;;;;;;13.69;95.69;95225.66;5113055;28;20173;-74
2022/10/01 01:43:33;;;;;;;17.03;9.00;;;;;;;13.79;95.82;95223.28;5111831;28;20180;-74
2022/10/01 01:46:03;;;;;;;15.03;9.20;;;;;;;13.60;96.02;95248.13;5112901;28;20192;-74
2022/10/01 01:48:30;;;;;;;17.77;9.80;;;;;;;13.59;97.12;95225.34;5113018;28;20205;-74
2022/10/01 01:51:11;;;;;;;12.53;7.90;;;;;;;13.68;97.06;95236.44;5113193;28;20199;-74
2022/10/01 01:53:37;;;;;;;12.43;7.80;;;;;;;13.50;96.77;95193.09;5111128;28;20447;-74
2022/10/01 01:56:04;;;;;;;10.10;6.80;;;;;;;13.67;96.34;95205.72;5112645;28;20522;-74
2022/10/01 01:58:32;;;;;;;14.50;6.97;;;;;;;13.69;96.12;95207.13;5112507;28;20168;-74
2022/10/01 02:00:57;;;;;;;13.90;7.00;;;;;;;13.91;95.69;95232.13;5112442;28;20201;-74
2022/10/01 02:03:27;;;;;;;17.97;6.67;;;;;;;13.77;95.95;95254.47;5112535;28;20207;-74
2022/10/01 02:06:23;;;;;;;9.40;6.57;;;;;;;13.74;96.46;95238.22;5112734;28;20636;-74
2022/10/01 02:09:02;;;;;;;12.17;5.90;;;;;;;13.73;96.17;95263.88;5112563;28;20250;-74
2022/10/01 02:11:36;;;;;;;13.43;6.50;;;;;;;13.68;96.76;95245.19;5112468;28;20229;-74
2022/10/01 02:14:46;;;;;;;10.73;5.97;;;;;;;13.63;96.27;95260.13;5112441;28;20644;-74
2022/10/01 02:17:28;;;;;;;8.13;5.73;;;;;;;13.62;97.28;95246.09;5112384;28;20263;-74
2022/10/01 02:20:08;;;;;;;7.87;6.03;;;;;;;13.67;96.71;95248.88;5112377;28;20691;-74
2022/10/01 02:23:04;;;;;;;10.77;6.37;;;;;;;13.62;97.17;95253.22;5111003;28;20196;-74
2022/10/01 02:25:36;;;;;;;9.50;5.93;;;;;;;13.68;96.75;95260.25;5105027;28;20675;-74
2022/10/01 02:28:15;;;;;;;11.83;7.40;;;;;;;13.62;96.64;95248.72;5112174;27;20243;-74
2022/10/01 02:30:43;;;;;;;16.30;6.67;;;;;;;13.66;96.28;95255.22;5112168;28;20625;-74
2022/10/01 02:33:12;;;;;;;14.40;7.10;;;;;;;13.59;96.39;95260.53;5111894;28;20529;-74
2022/10/01 02:35:40;;;;;;;15.80;6.73;;;;;;;13.63;96.80;95255.63;5111787;28;20181;-74
2022/10/01 02:38:09;;;;;;;8.83;6.10;;;;;;;13.63;96.09;95254.81;5111757;28;20172;-74
2022/10/01 02:40:38;;;;;;;16.73;6.93;;;;;;;13.66;96.26;95249.09;5111428;28;20229;-74
2022/10/01 02:43:10;;;;;;;11.43;6.23;;;;;;;13.86;96.00;95265.56;5112107;28;20245;-74
2022/10/01 02:45:39;;;;;;;9.13;6.13;;;;;;;13.79;96.07;95278.88;5111984;28;20177;-74
2022/10/01 02:48:08;;;;;;;9.57;6.40;;;;;;;13.89;96.00;95265.13;5111670;28;20205;-74
2022/10/01 02:50:53;;;;;;;10.53;6.13;;;;;;;13.84;96.36;95272.91;5111793;28;20180;-74
2022/10/01 02:53:25;;;;;;;8.30;4.90;;;;;;;13.92;96.20;95273.41;5111355;28;20180;-74
2022/10/01 02:55:52;;;;;;;12.67;5.17;;;;;;;14.00;96.36;95272.34;5111306;28;20213;-74
2022/10/01 02:58:18;;;;;;;15.37;6.10;;;;;;;14.01;96.36;95295.09;5111484;28;20164;-74
2022/10/01 03:00:44;;;;;;;10.03;5.50;;;;;;;14.01;96.27;95255.41;5111562;28;20173;-75
2022/10/01 03:03:10;;;;;;;15.97;6.63;;;;;;;14.07;95.97;95269.59;5111562;28;20226;-74
2022/10/01 03:05:35;;;;;;;11.33;6.27;;;;;;;13.94;96.72;95274.00;5111377;27;20590;-74
2022/10/01 03:08:01;;;;;;;10.00;6.47;;;;;;;14.00;96.92;95256.44;5111139;28;20276;-74
2022/10/01 03:10:26;;;;;;;9.77;6.27;;;;;;;13.97;96.98;95268.28;5111260;28;20191;-74
2022/10/01 03:12:51;;;;;;;9.03;5.53;;;;;;;14.09;97.11;95257.78;5111434;28;20700;-74
2022/10/01 03:15:18;;;;;;;10.43;5.70;;;;;;;14.20;97.09;95269.44;5111638;28;20188;-74
2022/10/01 03:17:44;;;;;;;15.10;5.67;;;;;;;14.33;96.78;95277.22;5111638;28;20177;-74
2022/10/01 03:20:11;;;;;;;22.87;8.50;;;;;;;14.28;95.99;95277.06;5111471;28;20542;-74
2022/10/01 03:22:36;;;;;;;8.40;6.03;;;;;;;14.36;96.13;95266.97;5111097;27;20181;-74
2022/10/01 03:25:02;;;;;;;11.80;6.67;;;;;;;14.33;95.49;95277.22;5111070;28;20184;-75
2022/10/01 03:27:28;;;;;;;14.03;6.17;;;;;;;14.28;96.18;95266.47;5111015;28;20205;-75
2022/10/01 03:29:53;;;;;;;9.97;4.83;;;;;;;14.36;96.19;95277.56;5111116;28;20635;-74
2022/10/01 03:32:19;;;;;;;11.37;5.67;;;;;;;14.21;96.07;95308.94;5111024;28;20195;-74
2022/10/01 03:34:45;;;;;;;13.30;5.53;;;;;;;14.20;96.78;95287.97;5111043;28;20169;-74
2022/10/01 03:37:11;;;;;;;14.63;5.80;;;;;;;14.33;96.73;95280.69;5110742;28;20169;-74
2022/10/01 03:39:38;;;;;;;13.90;6.23;;;;;;;14.30;96.00;95286.41;5111000;28;20221;-74
2022/10/01 03:42:04;;;;;;;10.50;6.13;;;;;;;14.19;95.92;95271.25;5111181;28;20181;-74
2022/10/01 03:44:30;;;;;;;10.80;6.67;;;;;;;14.34;95.96;95262.94;5110872;28;20173;-74
2022/10/01 03:46:56;;;;;;;19.00;6.10;;;;;;;14.32;95.05;95267.66;5110853;28;20197;-74
2022/10/01 03:49:21;;;;;;;10.73;6.60;;;;;;;14.14;95.88;95283.56;5110941;28;20179;-74
2022/10/01 03:51:47;;;;;;;10.50;6.63;;;;;;;14.00;96.65;95256.44;5110607;28;20577;-74
2022/10/01 03:54:12;;;;;;;12.63;6.60;;;;;;;13.96;96.74;95264.03;5110984;28;20234;-75
2022/10/01 03:56:41;;;;;;;11.97;6.30;;;;;;;13.96;96.98;95248.13;5110804;28;20191;-74
2022/10/01 03:59:07;;;;;;;7.27;5.73;;;;;;;14.08;96.98;95265.94;5110723;28;20180;-75
2022/10/01 04:01:33;;;;;;;11.03;6.13;;;;;;;13.94;96.94;95258.13;5110826;28;20653;-75
2022/10/01 04:03:58;;;;;;;10.13;7.00;;;;;;;13.95;97.26;95230.63;5110474;28;20215;-74
2022/10/01 04:06:24;;;;;;;10.50;6.63;;;;;;;14.10;96.23;95234.72;5111184;28;20199;-74
2022/10/01 04:08:49;;;;;;;8.93;5.93;;;;;;;14.11;95.98;95233.69;5115237;28;20266;-75
2022/10/01 04:11:14;;;;;;;14.67;6.03;;;;;;;14.16;96.02;95239.16;5114871;28;20177;-74
2022/10/01 04:13:40;;;;;;;9.77;6.10;;;;;;;14.12;96.30;95224.72;5114870;28;20176;-75
2022/10/01 04:16:06;;;;;;;12.43;6.70;;;;;;;14.14;96.08;95263.19;5114747;28;20586;-75
2022/10/01 04:18:32;;;;;;;11.80;7.00;;;;;;;13.61;97.82;95281.50;5114607;28;20612;-74
2022/10/01 04:20:58;;;;;;;9.77;6.70;;;;;;;13.66;99.00;95270.28;5114657;28;20256;-74
2022/10/01 04:23:24;;;;;;;13.00;7.87;;;;;;;13.69;98.62;95281.22;5114664;28;20260;-75
2022/10/01 04:25:50;;;;;;;13.97;7.23;;;;;;;13.73;98.58;95260.44;5114532;28;20172;-74
2022/10/01 04:28:15;;;;;;;11.50;6.73;;;;;;;13.86;98.20;95265.56;5114384;28;20197;-74
2022/10/01 04:30:43;;;;;;;9.73;6.63;;;;;;;13.99;97.76;95254.84;5114391;28;20703;-75
2022/10/01 04:33:12;;;;;;;14.17;8.10;;;;;;;14.08;97.35;95252.69;5114237;28;20177;-75
2022/10/01 04:35:38;;;;;;;13.13;8.07;;;;;;;14.16;96.94;95233.84;5114335;28;20534;-75
2022/10/01 04:38:12;;;;;;;14.33;9.37;;;;;;;14.22;96.46;95243.53;5114332;28;20674;-74
2022/10/01 04:40:38;;;;;;;23.10;12.63;;;;;;;13.98;96.11;95261.97;5114127;28;20645;-74
2022/10/01 04:43:07;;;;;;;24.83;12.10;;;;;;;13.83;97.70;95247.50;5114196;28;20318;-74
2022/10/01 04:45:32;;;;;;;26.43;11.70;;;;;;;13.88;97.94;95248.44;5114213;28;20180;-74
2022/10/01 04:47:58;;;;;;;26.00;13.07;;;;;;;13.91;98.13;95245.34;5114059;28;20193;-74
2022/10/01 04:50:25;;;;;;;29.00;15.90;;;;;;;13.93;97.84;95275.03;5113938;28;20173;-75
2022/10/01 04:52:51;;;;;;;27.90;18.03;;;;;;;13.97;97.85;95270.13;5113763;28;20565;-74
2022/10/01 04:55:18;;;;;;;26.77;14.60;;;;;;;14.12;97.42;95288.28;5113813;28;20304;-75
2022/10/01 04:57:43;;;;;;;26.03;14.67;;;;;;;14.24;97.00;95270.63;5113749;28;20268;-74
2022/10/01 05:00:13;;;;;;;21.67;13.63;;;;;;;14.30;96.85;95280.31;5113755;28;20298;-74
2022/10/01 05:02:38;;;;;;;19.60;13.03;;;;;;;14.39;96.67;95286.13;5113770;28;20580;-77
2022/10/01 05:05:06;;;;;;;20.87;12.77;;;;;;;14.56;96.34;95281.84;5113587;28;20176;-75
2022/10/01 05:07:33;;;;;;;20.83;12.63;;;;;;;14.70;95.21;95307.91;5113295;28;20206;-74
2022/10/01 05:09:59;;;;;;;25.37;13.00;;;;;;;14.62;94.77;95271.13;5113671;28;20616;-75
2022/10/01 05:12:26;;;;;;;22.60;10.63;;;;;;;14.77;94.48;95315.81;5113703;28;20261;-75
2022/10/01 05:14:52;;;;;;;19.57;12.03;;;;;;;14.96;95.92;95293.47;5113450;28;20647;-75
2022/10/01 05:17:18;;;;;;;21.42;12.27;;;;;;;15.41;93.85;95307.06;5113952;28;20188;-75
2022/10/01 05:19:44;;;;;;;22.30;13.43;;;;;;;15.36;92.56;95271.66;5113594;28;20174;-74
2022/10/01 05:22:11;;;;;;;18.30;11.23;;;;;;;15.69;90.85;95305.59;5113412;28;20188;-75
2022/10/01 05:24:36;;;;;;;21.02;12.23;;;;;;;15.70;90.10;95294.75;5113344;28;20277;-74
2022/10/01 05:27:02;;;;;;;20.52;11.10;;;;;;;15.63;89.95;95290.59;5113194;28;20220;-75
2022/10/01 05:29:27;;;;;;;20.20;10.68;;;;;;;15.71;90.15;95307.00;5113380;28;20209;-75
2022/10/01 05:31:53;;;;;;;13.20;9.40;;;;;;;15.76;90.60;95299.13;5113324;28;20259;-75
2022/10/01 05:34:19;;;;;;;20.55;10.60;;;;;;;15.85;90.93;95310.22;5113055;28;20562;-75
2022/10/01 05:36:44;;;;;;;18.77;9.45;;;;;;;15.93;90.75;95315.16;5113183;28;20185;-75
2022/10/01 05:39:10;;;;;;;16.58;8.63;;;;;;;16.04;90.85;95314.34;5112732;28;20219;-75
2022/10/01 05:41:37;;;;;;;9.68;6.25;;;;;;;16.19;90.06;95311.19;5113299;28;20185;-75
2022/10/01 05:44:02;;;;;;;10.30;6.78;;;;;;;16.20;89.62;95292.38;5108705;28;20312;-75
2022/10/01 05:46:27;;;;;;;13.90;5.93;;;;;;;16.36;88.52;95285.50;5104169;28;20273;-75
2022/10/01 05:48:53;;;;;;;12.07;6.40;;;;;;;16.23;87.33;95257.38;5111771;28;20189;-74
2022/10/01 05:51:18;;;;;;;9.73;5.72;;;;;;;16.50;87.02;95297.50;5112656;28;20214;-75
2022/10/01 05:53:46;;;;;;;9.38;5.93;;;;;;;16.48;85.87;95261.56;5112635;28;20309;-74
2022/10/01 05:56:12;;;;;;;8.82;5.13;;;;;;;16.97;85.70;95276.84;5112790;28;20176;-74
2022/10/01 05:58:37;;;;;;;6.93;5.05;;;;;;;17.11;84.11;95273.88;5112660;28;20169;-74
2022/10/01 06:01:03;;;;;;;8.90;5.65;;;;;;;17.48;83.34;95298.97;5112704;28;20169;-75
2022/10/01 06:03:29;;;;;;;13.60;5.80;;;;;;;17.50;81.13;95301.38;5112650;28;20678;-75
2022/10/01 06:05:55;;;;;;;8.90;5.47;;;;;;;17.68;81.53;95312.63;5104729;28;20261;-75
2022/10/01 06:08:21;;;;;;;19.67;5.95;;;;;;;17.90;81.53;95333.19;5111165;27;20203;-75
2022/10/01 06:10:48;;;;;;;10.95;5.18;;;;;;;18.17;80.27;95315.44;5112511;28;20173;-74
2022/10/01 06:13:16;;;;;;;15.55;5.65;;;;;;;18.57;79.38;95333.03;5112427;28;20192;-75
2022/10/01 06:15:42;;;;;;;13.50;7.57;;;;;;;18.88;77.03;95337.66;5112528;28;20200;-75
2022/10/01 06:18:10;;;;;;;8.38;5.68;;;;;;;19.15;76.35;95335.81;5112492;28;20234;-75
2022/10/01 06:20:36;;;;;;;12.52;5.72;;;;;;;19.63;75.88;95346.69;5094051;28;20563;-75
2022/10/01 06:23:06;;;;;;;15.25;6.07;;;;;;;20.02;74.56;95349.91;5112277;28;20177;-75
2022/10/01 06:25:33;;;;;;;13.57;5.22;;;;;;;20.26;72.45;95364.47;5099007;28;20177;-75
2022/10/01 06:28:00;;;;;;;7.93;4.85;;;;;;;20.49;71.89;95357.97;5111912;28;20196;-75
2022/10/01 06:30:28;;;;;;;10.82;5.43;;;;;;;20.82;70.26;95367.47;5111730;28;20192;-75
2022/10/01 06:33:09;;;;;;;6.25;4.55;;;;;;;21.05;70.01;95369.69;5102614;28;20181;-75
2022/10/01 06:35:40;;;;;;;12.00;4.72;;;;;;;21.24;68.25;95364.69;5103741;28;20264;-75
2022/10/01 06:38:05;;;;;;;7.93;4.30;;;;;;;21.29;66.96;95351.28;5102776;28;20172;-75
2022/10/01 06:40:31;;;;;;;6.50;4.63;;;;;;;21.43;64.75;95355.09;5111832;27;20223;-75
2022/10/01 06:42:57;;;;;;;8.55;4.32;;;;;;;21.39;65.11;95346.75;5111899;27;20177;-75
2022/10/01 06:45:26;;;;;;;10.63;4.85;;;;;;;21.66;66.45;95351.88;5111875;28;20682;-76
2022/10/01 06:47:56;;;;;;;8.50;4.75;;;;;;;21.78;64.93;95338.22;5111755;28;20284;-75
2022/10/01 06:50:23;;;;;;;10.18;4.97;;;;;;;21.90;63.11;95329.88;5111586;28;20168;-75
2022/10/01 06:52:50;;;;;;;12.35;5.28;;;;;;;22.00;63.85;95343.31;5109296;28;20176;-75
2022/10/01 06:55:16;;;;;;;11.68;5.60;;;;;;;22.10;64.22;95356.72;5111796;28;20177;-75
2022/10/01 06:57:41;;;;;;;7.35;4.88;;;;;;;22.22;63.89;95353.75;5102101;28;20186;-74
2022/10/01 07:00:07;;;;;;;17.85;6.45;;;;;;;22.49;62.34;95346.94;5104622;28;20184;-74
2022/10/01 07:02:33;;;;;;;13.05;6.13;;;;;;;22.73;62.14;95336.41;5108179;28;20181;-74
2022/10/01 07:04:59;;;;;;;11.60;6.00;;;;;;;22.89;61.27;95335.28;5111265;27;20661;-74
2022/10/01 07:07:28;;;;;;;12.77;5.78;;;;;;;23.09;60.72;95341.66;5111244;28;20297;-74
2022/10/01 07:09:54;;;;;;;8.75;5.50;;;;;;;22.99;60.65;95355.94;5111336;28;20243;-74
2022/10/01 07:12:19;;;;;;;11.35;6.07;;;;;;;22.80;59.71;95393.34;5111097;28;20644;-74
2022/10/01 07:14:45;;;;;;;9.65;5.25;;;;;;;22.92;61.29;95401.88;5111129;28;20165;-74
2022/10/01 07:17:10;;;;;;;11.02;5.15;;;;;;;23.00;60.43;95387.09;5111430;28;20153;-76
2022/10/01 07:19:36;;;;;;;11.85;5.28;;;;;;;23.13;61.80;95377.59;5110981;28;20177;-77
2022/10/01 07:22:01;;;;;;;17.48;5.43;;;;;;;23.24;60.24;95379.97;5110704;27;20204;-75
2022/10/01 07:24:26;;;;;;;12.05;5.53;;;;;;;23.53;57.55;95363.94;5111072;28;20204;-74
2022/10/01 07:26:54;;;;;;;13.15;5.60;;;;;;;23.30;58.57;95362.72;5108628;28;20548;-75
2022/10/01 07:29:22;;;;;;;17.55;5.22;;;;;;;23.19;59.41;95358.50;5101991;28;20176;-75
2022/10/01 07:31:47;;;;;;;14.73;4.85;;;;;;;23.42;58.26;95346.28;5113597;27;20532;-75
2022/10/01 07:34:13;;;;;;;18.00;5.45;;;;;;;23.75;56.73;95349.28;5092755;28;20188;-74
2022/10/01 07:36:39;;;;;;;15.63;5.47;;;;;;;23.57;57.46;95332.75;5094294;28;20252;-74
2022/10/01 07:39:05;;;;;;;8.88;5.85;;;;;;;23.51;56.85;95333.06;5102854;28;20597;-74
2022/10/01 07:41:30;;;;;;;10.57;5.57;;;;;;;23.46;57.24;95339.25;5101068;28;20180;-75
2022/10/01 07:43:56;;;;;;;11.93;5.78;;;;;;;23.54;59.94;95327.13;5095734;28;20165;-74
2022/10/01 07:46:21;;;;;;;14.75;4.93;;;;;;;23.65;59.28;95334.84;5098183;28;20660;-74
2022/10/01 07:48:48;;;;;;;10.38;4.78;;;;;;;23.68;57.59;95342.34;5096899;28;20209;-75
2022/10/01 07:51:13;;;;;;;11.55;4.82;;;;;;;23.68;56.06;95320.03;5093396;28;20176;-75
2022/10/01 07:53:39;;;;;;;12.05;5.75;;;;;;;23.60;55.93;95331.41;5092714;28;20177;-74
2022/10/01 07:56:04;;;;;;;8.55;4.90;;;;;;;23.22;57.30;95354.47;5097605;28;20263;-75
2022/10/01 07:58:30;;;;;;;8.70;4.70;;;;;;;22.84;57.78;95337.19;5098404;28;20184;-75
2022/10/01 08:00:57;;;;;;;10.88;4.60;;;;;;;22.78;59.19;95357.88;5097909;28;20177;-74
2022/10/01 08:03:23;;;;;;;15.07;5.22;;;;;;;22.60;59.96;95345.03;5092763;28;20188;-74
2022/10/01 08:05:49;;;;;;;7.00;4.35;;;;;;;22.51;61.39;95330.56;5104589;28;20226;-76
2022/10/01 08:08:14;;;;;;;14.07;5.30;;;;;;;22.34;60.55;95324.72;5094213;28;20196;-75
2022/10/01 08:10:40;;;;;;;15.40;4.57;;;;;;;22.18;60.92;95322.09;5101001;28;20412;-75
2022/10/01 08:13:13;;;;;;;12.15;4.68;;;;;;;21.96;62.25;95315.41;5099876;28;20173;-74
2022/10/01 08:15:43;;;;;;;11.48;4.10;;;;;;;21.84;61.21;95291.56;5097641;28;20184;-74
2022/10/01 08:18:10;;;;;;;10.55;4.95;;;;;;;21.78;62.18;95304.16;5097322;28;20176;-74
2022/10/01 08:20:38;;;;;;;8.93;4.57;;;;;;;21.63;61.93;95289.94;5096382;28;20177;-74
2022/10/01 08:23:06;;;;;;;15.98;4.53;;;;;;;21.30;62.10;95286.75;5094941;28;21893;-74
2022/10/01 08:25:32;;;;;;;9.93;4.70;;;;;;;21.32;61.90;95291.84;5094254;28;20687;-74
2022/10/01 08:27:59;;;;;;;8.48;4.72;;;;;;;21.18;63.58;95264.78;5091818;28;20208;-74
2022/10/01 08:30:25;;;;;;;9.10;4.85;;;;;;;21.17;63.76;95295.31;5099196;28;20185;-74
2022/10/01 08:32:54;;;;;;;8.38;4.93;;;;;;;20.60;67.08;95290.84;5093733;28;20174;-74
2022/10/01 08:35:21;;;;;;;10.60;4.50;;;;;;;20.56;67.79;95280.94;5097636;28;20618;-75
2022/10/01 08:37:47;;;;;;;9.68;5.40;;;;;;;20.30;66.54;95229.22;5097174;28;20227;-75
2022/10/01 08:40:13;;;;;;;8.98;5.38;;;;;;;20.64;67.55;95291.16;5098450;28;20299;-74
2022/10/01 08:42:48;;;;;;;9.38;5.57;;;;;;;20.57;66.63;95275.34;5102795;28;20181;-75
2022/10/01 08:45:33;;;;;;;10.13;5.50;;;;;;;20.52;65.95;95239.72;5098693;28;20165;-74
2022/10/01 08:48:12;;;;;;;17.02;6.32;;;;;;;20.58;66.27;95263.56;5095938;28;20709;-75
2022/10/01 08:51:01;;;;;;;15.45;6.13;;;;;;;20.52;67.14;95274.50;5096463;28;20187;-74
2022/10/01 08:53:35;;;;;;;11.68;6.18;;;;;;;20.54;66.74;95270.50;5105058;28;20169;-75
2022/10/01 08:56:02;;;;;;;11.35;6.05;;;;;;;20.54;67.57;95280.41;5102744;28;20940;-75
2022/10/01 08:58:36;;;;;;;9.95;5.32;;;;;;;20.44;69.66;95283.84;5101450;28;20264;-75
2022/10/01 09:01:02;;;;;;;10.15;5.43;;;;;;;20.42;68.54;95303.88;5103421;28;20169;-75
2022/10/01 09:03:31;;;;;;;11.70;5.00;;;;;;;20.43;69.33;95266.19;5100296;28;20894;-75
2022/10/01 09:06:24;;;;;;;11.13;5.47;;;;;;;20.50;68.78;95290.81;5106528;28;20195;-74
2022/10/01 09:08:59;;;;;;;12.23;5.15;;;;;;;20.44;68.84;95302.56;5098712;28;20201;-75
2022/10/01 09:11:43;;;;;;;14.90;5.03;;;;;;;20.43;69.80;95297.47;5098878;28;20169;-75
2022/10/01 09:14:14;;;;;;;11.80;5.53;;;;;;;20.16;70.15;95345.69;5103039;28;20197;-75
2022/10/01 09:16:55;;;;;;;18.02;7.30;;;;;;;19.78;72.06;95368.19;5097654;28;20677;-75
2022/10/01 09:19:41;;;;;;;9.75;7.35;;;;;;;19.80;73.21;95363.38;5094617;28;20259;-74
2022/10/01 09:22:26;;;;;;;14.25;7.13;;;;;;;19.76;73.42;95376.44;5097654;28;20181;-74
2022/10/01 09:25:24;;;;;;;13.70;6.85;;;;;;;19.61;75.02;95368.31;5095873;28;20309;-74
2022/10/01 09:27:51;;;;;;;10.15;5.60;;;;;;;19.56;73.75;95382.41;5094238;28;20273;-74
2022/10/01 09:30:22;;;;;;;12.02;5.03;;;;;;;19.64;74.56;95370.44;5097105;28;20908;-75
2022/10/01 09:33:08;;;;;;;11.40;6.22;;;;;;;19.75;73.21;95366.00;5096295;28;20595;-74
2022/10/01 09:35:47;;;;;;;12.82;6.30;;;;;;;19.69;73.03;95367.03;5083476;28;20209;-74
2022/10/01 09:38:19;;;;;;;14.77;8.48;;;;;;;19.83;74.48;95392.25;5100726;28;20180;-75
2022/10/01 09:40:53;;;;;;;25.05;7.85;;;;;;;19.82;75.05;95385.28;5097635;28;20634;-74
2022/10/01 09:43:22;;;;;;;12.18;6.95;;;;;;;19.62;75.73;95353.91;5104716;28;20169;-75
2022/10/01 09:45:51;;;;;;;15.90;6.85;;;;;;;19.88;74.16;95358.38;5106694;28;20235;-75
2022/10/01 09:48:26;;;;;;;16.27;7.40;;;;;;;19.87;73.20;95351.41;5098260;28;20193;-74
2022/10/01 09:50:57;;;;;;;12.40;6.03;;;;;;;19.79;72.97;95337.72;5108400;28;20358;-75
2022/10/01 09:53:40;;;;;;;11.68;6.75;;;;;;;19.81;73.32;95317.69;5102096;28;20226;-74
2022/10/01 09:56:15;;;;;;;11.13;6.30;;;;;;;19.74;75.83;95297.59;5097328;28;20178;-75
2022/10/01 09:58:46;;;;;;;10.50;6.90;;;;;;;19.62;74.70;95289.78;5094668;28;20184;-75
2022/10/01 10:01:43;;;;;;;11.10;6.15;;;;;;;19.49;75.32;95284.88;5095716;28;20308;-77
2022/10/01 10:04:10;;;;;;;12.13;5.90;;;;;;;19.66;75.36;95290.06;5074770;28;20192;-77
2022/10/01 10:06:36;;;;;;;12.10;5.57;;;;;;;19.56;76.33;95269.41;5096719;28;20275;-75
2022/10/01 10:09:03;;;;;;;12.60;5.97;;;;;;;19.73;76.11;95306.66;5096928;28;20688;-75
2022/10/01 10:11:30;;;;;;;16.48;5.97;;;;;;;19.71;75.81;95306.94;5101204;28;20211;-74
2022/10/01 10:13:59;;;;;;;13.48;4.97;;;;;;;19.78;76.95;95294.16;5095631;27;20192;-75
2022/10/01 10:16:46;;;;;;;12.73;5.13;;;;;;;19.63;79.86;95278.03;5101802;27;20181;-74
2022/10/01 10:19:23;;;;;;;20.45;8.93;;;;;;;19.62;80.37;95313.81;5098788;28;20176;-76
2022/10/01 10:21:59;;;;;;;15.07;6.07;;;;;;;19.52;79.53;95295.84;5102884;28;20184;-75
2022/10/01 10:24:33;;;;;;;18.48;6.53;;;;;;;19.62;81.58;95289.78;5102113;27;20195;-74
2022/10/01 10:27:01;;;;;;;11.52;5.43;;;;;;;19.71;79.83;95298.13;5099467;28;20220;-74
2022/10/01 10:29:32;;;;;;;19.30;5.93;;;;;;;19.46;79.54;95254.09;5108747;28;20228;-74
2022/10/01 10:32:01;;;;;;;12.07;6.18;;;;;;;19.68;79.27;95303.97;5104507;28;20270;-74
2022/10/01 10:34:37;;;;;;;13.27;6.38;;;;;;;19.61;80.39;95312.22;5096630;28;20216;-76
2022/10/01 10:37:12;;;;;;;9.68;5.75;;;;;;;19.58;80.78;95337.56;5098605;28;20172;-76
2022/10/01 10:39:41;;;;;;;15.63;7.13;;;;;;;19.41;82.75;95338.72;5100133;28;20243;-76
2022/10/01 10:42:13;;;;;;;9.45;6.03;;;;;;;19.40;82.38;95329.09;5096463;28;20185;-76
2022/10/01 10:44:42;;;;;;;10.35;6.25;;;;;;;19.31;83.74;95327.94;5094784;28;20256;-76
2022/10/01 10:47:16;;;;;;;10.95;6.38;;;;;;;19.19;85.04;95275.53;5099535;28;20312;-76
2022/10/01 10:49:44;;;;;;;9.73;6.70;;;;;;;19.27;84.46;95279.59;5101961;28;20560;-76
2022/10/01 10:52:28;;;;;;;12.25;7.10;;;;;;;19.21;84.67;95275.25;5098603;28;20186;-76
2022/10/01 10:54:55;;;;;;;13.45;6.13;;;;;;;19.12;85.42;95271.44;5090501;28;20177;-76
2022/10/01 10:57:32;;;;;;;15.82;7.43;;;;;;;19.14;85.70;95280.00;5093215;28;20170;-77
2022/10/01 11:00:01;;;;;;;8.20;6.07;;;;;;;19.23;84.48;95271.28;5097026;28;20169;-76
2022/10/01 11:02:29;;;;;;;12.20;6.63;;;;;;;19.18;85.92;95276.59;5097544;28;20182;-76
2022/10/01 11:04:57;;;;;;;8.68;5.75;;;;;;;19.15;85.29;95276.28;5098930;28;20178;-76
2022/10/01 11:07:26;;;;;;;9.40;6.10;;;;;;;19.28;86.79;95267.06;5094129;28;20204;-76
2022/10/01 11:10:00;;;;;;;10.80;7.40;;;;;;;19.23;87.13;95263.28;5092180;28;20259;-77
2022/10/01 11:13:13;;;;;;;11.95;7.40;;;;;;;19.32;85.32;95257.47;5093190;28;20219;-76
2022/10/01 11:15:48;;;;;;;8.43;6.25;;;;;;;19.34;84.48;95242.81;5040923;28;20191;-76
2022/10/01 11:18:41;;;;;;;16.15;7.28;;;;;;;19.45;84.82;95238.34;5040423;28;20269;-76
2022/10/01 11:21:28;;;;;;;11.65;6.75;;;;;;;19.47;84.29;95205.00;5079362;28;22012;-75
2022/10/01 11:23:53;;;;;;;13.00;6.47;;;;;;;19.42;84.53;95188.13;5095586;28;20234;-76
2022/10/01 11:26:37;;;;;;;12.57;7.13;;;;;;;19.37;85.10;95204.13;5096365;28;20193;-76
2022/10/01 11:29:13;;;;;;;14.43;6.90;;;;;;;19.39;85.57;95226.00;5093853;28;20205;-76
2022/10/01 11:32:04;;;;;;;13.07;7.03;;;;;;;19.40;85.34;95209.72;5095797;28;20188;-74
2022/10/01 11:35:05;;;;;;;19.60;7.53;;;;;;;19.40;85.87;95201.72;5099360;28;20663;-74
2022/10/01 11:38:09;;;;;;;14.00;7.07;;;;;;;19.36;86.61;95202.50;5098587;28;20689;-76